sensor_id;sensor_type;location;lat;lon;timestamp;pressure;altitude;pressure_sealevel;temperature;humidity
69593;BME280;56796;50.122;14.468;2023-04-12T00:04:28;976.92;;;4.02;84.53
69593;BME280;56796;50.122;14.468;2023-04-12T00:23:52;976.52;;;3.9;85.33
69593;BME280;56796;50.122;14.468;2023-04-12T00:43:18;976.21;;;3.8;86.53
69593;BME280;56796;50.122;14.468;2023-04-12T01:02:44;976.08;;;3.87;88.29
69593;BME280;56796;50.122;14.468;2023-04-12T01:22:10;975.85;;;3.79;88.94
69593;BME280;56796;50.122;14.468;2023-04-12T01:41:37;975.72;;;3.63;89.15
69593;BME280;56796;50.122;14.468;2023-04-12T02:01:00;975.56;;;3.7;90.24
69593;BME280;56796;50.122;14.468;2023-04-12T02:20:27;975.46;;;3.35;91.44
69593;BME280;56796;50.122;14.468;2023-04-12T02:39:52;975.22;;;3.2;91.8
69593;BME280;56796;50.122;14.468;2023-04-12T02:59:17;975.07;;;3.09;92.32
69593;BME280;56796;50.122;14.468;2023-04-12T03:18:42;974.96;;;2.9;93.62
69593;BME280;56796;50.122;14.468;2023-04-12T03:38:08;974.85;;;2.6;94.4
69593;BME280;56796;50.122;14.468;2023-04-12T03:57:33;974.59;;;2.53;94.74
69593;BME280;56796;50.122;14.468;2023-04-12T04:17:02;974.56;;;2.56;94.9
69593;BME280;56796;50.122;14.468;2023-04-12T04:36:25;974.67;;;2.62;94.93
69593;BME280;56796;50.122;14.468;2023-04-12T04:55:38;974.77;;;2.74;94.73
69593;BME280;56796;50.122;14.468;2023-04-12T05:15:06;974.73;;;3.04;94.04
69593;BME280;56796;50.122;14.468;2023-04-12T05:34:32;974.56;;;3.79;92.18
69593;BME280;56796;50.122;14.468;2023-04-12T05:54:05;974.39;;;4.94;88.67
69593;BME280;56796;50.122;14.468;2023-04-12T06:13:37;974.06;;;6.18;83.79
69593;BME280;56796;50.122;14.468;2023-04-12T06:32:56;973.94;;;7.43;78.58
69593;BME280;56796;50.122;14.468;2023-04-12T06:52:24;973.52;;;8.06;74.81
69593;BME280;56796;50.122;14.468;2023-04-12T07:11:55;973.13;;;9.93;70.28
69593;BME280;56796;50.122;14.468;2023-04-12T07:31:28;972.9;;;11.07;65.52
69593;BME280;56796;50.122;14.468;2023-04-12T07:50:57;972.77;;;11.91;62.25
69593;BME280;56796;50.122;14.468;2023-04-12T08:10:28;972.74;;;12.7;59.49
69593;BME280;56796;50.122;14.468;2023-04-12T08:30:03;972.43;;;13.44;55.76
69593;BME280;56796;50.122;14.468;2023-04-12T08:49:35;972.15;;;14.7;51.16
69593;BME280;56796;50.122;14.468;2023-04-12T09:09:07;971.86;;;15.41;44.49
69593;BME280;56796;50.122;14.468;2023-04-12T09:28:35;971.25;;;15.54;43.27
69593;BME280;56796;50.122;14.468;2023-04-12T09:48:05;970.95;;;17.03;42.61
69593;BME280;56796;50.122;14.468;2023-04-12T10:07:33;970.79;;;16.59;39.71
69593;BME280;56796;50.122;14.468;2023-04-12T10:27:01;970.39;;;17.04;37.73
69593;BME280;56796;50.122;14.468;2023-04-12T11:25:24;969.39;;;17.93;36.28
69593;BME280;56796;50.122;14.468;2023-04-12T11:44:51;969.02;;;17.37;37.66
69593;BME280;56796;50.122;14.468;2023-04-12T12:04:21;968.89;;;18.41;35.96
69593;BME280;56796;50.122;14.468;2023-04-12T12:23:41;968.66;;;17.45;37.85
69593;BME280;56796;50.122;14.468;2023-04-12T12:42:56;968.27;;;15.59;40.79
69593;BME280;56796;50.122;14.468;2023-04-12T13:02:17;967.92;;;15.56;42.32
69593;BME280;56796;50.122;14.468;2023-04-12T13:21:39;967.74;;;14.26;44.82
69593;BME280;56796;50.122;14.468;2023-04-12T13:41:00;967.38;;;14.21;46.52
69593;BME280;56796;50.122;14.468;2023-04-12T14:00:29;967.2;;;15.97;43.86
69593;BME280;56796;50.122;14.468;2023-04-12T14:19:54;966.96;;;14.31;48.5
69593;BME280;56796;50.122;14.468;2023-04-12T14:39:17;966.98;;;13.88;50.75
69593;BME280;56796;50.122;14.468;2023-04-12T14:58:45;966.87;;;13.56;53.3
69593;BME280;56796;50.122;14.468;2023-04-12T15:18:03;966.85;;;13.6;54.26
69593;BME280;56796;50.122;14.468;2023-04-12T15:37:29;966.65;;;13.49;55.02
69593;BME280;56796;50.122;14.468;2023-04-12T15:56:58;966.32;;;13.63;54.99
69593;BME280;56796;50.122;14.468;2023-04-12T16:16:16;966.33;;;13.47;55.82
69593;BME280;56796;50.122;14.468;2023-04-12T16:35:41;966.44;;;13.29;57.25
69593;BME280;56796;50.122;14.468;2023-04-12T16:55:06;966.11;;;13.04;58.73
69593;BME280;56796;50.122;14.468;2023-04-12T17:14:35;966.04;;;13.01;60.11
69593;BME280;56796;50.122;14.468;2023-04-12T17:33:52;966.12;;;12.63;63.85
69593;BME280;56796;50.122;14.468;2023-04-12T17:53:18;966.15;;;12.49;65.73
69593;BME280;56796;50.122;14.468;2023-04-12T18:12:44;966.04;;;12.28;67.57
69593;BME280;56796;50.122;14.468;2023-04-12T18:32:11;966.04;;;12.21;68.22
69593;BME280;56796;50.122;14.468;2023-04-12T18:51:37;966.02;;;12.11;69.19
69593;BME280;56796;50.122;14.468;2023-04-12T19:11:03;965.92;;;11.92;70.13
69593;BME280;56796;50.122;14.468;2023-04-12T19:30:29;965.9;;;11.84;71.05
69593;BME280;56796;50.122;14.468;2023-04-12T19:49:55;965.7;;;11.74;71.59
69593;BME280;56796;50.122;14.468;2023-04-12T20:09:21;965.71;;;11.56;72.19
69593;BME280;56796;50.122;14.468;2023-04-12T20:28:46;965.69;;;11.34;73.16
69593;BME280;56796;50.122;14.468;2023-04-12T20:48:12;965.72;;;11.32;73.58
69593;BME280;56796;50.122;14.468;2023-04-12T21:07:38;965.51;;;11.24;73.93
69593;BME280;56796;50.122;14.468;2023-04-12T21:27:05;965.48;;;11.04;74.76
69593;BME280;56796;50.122;14.468;2023-04-12T21:46:30;965.63;;;10.99;74.98
69593;BME280;56796;50.122;14.468;2023-04-12T22:05:56;965.59;;;10.91;75.61
69593;BME280;56796;50.122;14.468;2023-04-12T22:25:23;965.62;;;10.72;77.49
69593;BME280;56796;50.122;14.468;2023-04-12T22:44:48;965.72;;;10.47;79.19
69593;BME280;56796;50.122;14.468;2023-04-12T23:04:13;965.62;;;10.32;80.8
69593;BME280;56796;50.122;14.468;2023-04-12T23:23:39;965.74;;;10.14;83.7
69593;BME280;56796;50.122;14.468;2023-04-12T23:43:05;965.84;;;10.04;85.05
